createdAt,value
2023-03-13T00:01:28.959Z,99.90
2023-03-13T00:03:55.930Z,99.90
2023-03-13T00:06:25.285Z,99.90
2023-03-13T00:08:51.872Z,99.90
2023-03-13T00:11:18.562Z,99.90
2023-03-13T00:13:45.149Z,99.90
2023-03-13T00:16:14.483Z,99.90
2023-03-13T00:18:48.406Z,99.90
2023-03-13T00:21:15.644Z,99.90
2023-03-13T00:23:42.290Z,99.90
2023-03-13T00:26:11.184Z,99.90
2023-03-13T00:28:39.189Z,99.90
2023-03-13T00:31:09.992Z,99.90
2023-03-13T00:33:38.988Z,99.90
2023-03-13T00:36:08.227Z,99.90
2023-03-13T00:38:35.414Z,99.90
2023-03-13T00:41:13.866Z,99.90
2023-03-13T00:43:42.655Z,99.90
2023-03-13T00:46:10.223Z,99.90
2023-03-13T00:48:37.365Z,99.90
2023-03-13T00:51:04.588Z,99.90
2023-03-13T00:53:31.482Z,99.90
2023-03-13T00:56:02.990Z,99.90
2023-03-13T00:58:32.447Z,99.90
2023-03-13T01:01:07.722Z,99.90
2023-03-13T01:03:34.487Z,99.90
2023-03-13T01:06:03.110Z,99.90
2023-03-13T01:08:30.811Z,99.90
2023-03-13T01:11:06.440Z,99.90
2023-03-13T01:13:34.006Z,99.90
2023-03-13T01:16:06.410Z,99.90
2023-03-13T01:18:34.806Z,99.90
2023-03-13T01:21:01.785Z,99.90
2023-03-13T01:23:28.527Z,99.90
2023-03-13T01:25:56.278Z,99.90
2023-03-13T01:28:24.212Z,99.90
2023-03-13T01:30:50.980Z,99.70
2023-03-13T01:33:17.999Z,99.60
2023-03-13T01:35:45.346Z,99.40
2023-03-13T01:38:12.164Z,99.30
2023-03-13T01:40:49.397Z,99.30
2023-03-13T01:43:27.059Z,99.10
2023-03-13T01:46:10.330Z,99.00
2023-03-13T01:49:04.522Z,99.00
2023-03-13T01:51:34.131Z,98.70
2023-03-13T01:54:06.744Z,98.70
2023-03-13T01:56:56.178Z,98.70
2023-03-13T01:59:31.640Z,98.10
2023-03-13T02:02:02.389Z,98.40
2023-03-13T02:04:34.945Z,98.40
2023-03-13T02:07:07.029Z,98.20
2023-03-13T02:09:35.377Z,98.40
2023-03-13T02:12:09.761Z,98.50
2023-03-13T02:14:39.203Z,98.50
2023-03-13T02:17:07.180Z,98.60
2023-03-13T02:19:43.196Z,98.60
2023-03-13T02:22:26.218Z,98.80
2023-03-13T02:25:04.860Z,98.90
2023-03-13T02:27:31.482Z,98.30
2023-03-13T02:29:59.105Z,98.30
2023-03-13T02:32:28.076Z,98.60
2023-03-13T02:35:01.486Z,98.30
2023-03-13T02:37:30.591Z,97.90
2023-03-13T02:40:00.890Z,98.20
2023-03-13T02:42:28.736Z,98.20
2023-03-13T02:44:55.298Z,98.20
2023-03-13T02:47:23.944Z,98.20
2023-03-13T02:49:53.227Z,97.90
2023-03-13T02:52:45.847Z,97.70
2023-03-13T02:55:33.890Z,97.60
2023-03-13T02:58:00.450Z,97.80
2023-03-13T03:00:27.556Z,97.60
2023-03-13T03:02:54.669Z,97.40
2023-03-13T03:05:22.097Z,97.20
2023-03-13T03:07:50.391Z,97.30
2023-03-13T03:10:18.151Z,97.20
2023-03-13T03:12:44.790Z,97.10
2023-03-13T03:15:11.740Z,97.00
2023-03-13T03:17:38.999Z,96.60
2023-03-13T03:20:11.699Z,96.60
2023-03-13T03:22:40.639Z,96.30
2023-03-13T03:25:09.094Z,96.00
2023-03-13T03:27:36.439Z,96.10
2023-03-13T03:30:05.204Z,96.20
2023-03-13T03:32:31.815Z,96.00
2023-03-13T03:34:58.357Z,95.60
2023-03-13T03:37:24.977Z,95.40
2023-03-13T03:39:51.540Z,95.40
2023-03-13T03:42:18.087Z,95.40
2023-03-13T03:44:44.720Z,95.20
2023-03-13T03:47:11.382Z,95.20
2023-03-13T03:49:37.978Z,95.20
2023-03-13T03:52:04.737Z,95.30
2023-03-13T03:54:31.239Z,95.40
2023-03-13T03:56:57.824Z,94.90
2023-03-13T03:59:24.395Z,94.90
2023-03-13T04:01:50.962Z,94.80
2023-03-13T04:04:17.636Z,94.90
2023-03-13T04:06:44.151Z,94.60
2023-03-13T04:09:10.855Z,94.70
2023-03-13T04:11:37.373Z,94.70
2023-03-13T04:14:03.915Z,94.60
2023-03-13T04:16:30.465Z,94.60
2023-03-13T04:18:57.139Z,95.40
2023-03-13T04:21:23.659Z,94.80
2023-03-13T04:23:50.190Z,94.60
2023-03-13T04:26:16.738Z,94.60
2023-03-13T04:28:43.260Z,94.60
2023-03-13T04:31:09.845Z,94.50
2023-03-13T04:33:36.930Z,94.60
2023-03-13T04:36:04.084Z,94.70
2023-03-13T04:38:30.730Z,94.40
2023-03-13T04:40:57.238Z,94.40
2023-03-13T04:43:23.823Z,94.40
2023-03-13T04:45:54.781Z,94.60
2023-03-13T04:48:21.678Z,94.30
2023-03-13T04:50:48.559Z,94.60
2023-03-13T04:53:15.347Z,94.40
2023-03-13T04:55:42.226Z,94.50
2023-03-13T04:58:08.797Z,94.40
2023-03-13T05:00:35.411Z,94.30
2023-03-13T05:03:01.938Z,94.30
2023-03-13T05:05:28.549Z,94.20
2023-03-13T05:07:55.146Z,94.10
2023-03-13T05:10:21.652Z,94.00
2023-03-13T05:12:48.271Z,94.00
2023-03-13T05:15:14.886Z,94.00
2023-03-13T05:17:41.542Z,94.30
2023-03-13T05:20:11.108Z,94.10
2023-03-13T05:22:38.578Z,94.20
2023-03-13T05:25:05.786Z,93.60
2023-03-13T05:27:32.330Z,93.90
2023-03-13T05:29:58.903Z,94.00
2023-03-13T05:32:25.522Z,93.50
2023-03-13T05:34:52.132Z,92.90
2023-03-13T05:37:18.709Z,93.20
2023-03-13T05:39:45.267Z,92.90
2023-03-13T05:42:11.839Z,93.40
2023-03-13T05:44:38.382Z,93.10
2023-03-13T05:47:05.111Z,93.30
2023-03-13T05:49:31.774Z,93.00
2023-03-13T05:51:58.317Z,92.90
2023-03-13T05:54:24.834Z,92.70
2023-03-13T05:56:52.028Z,92.60
2023-03-13T05:59:18.681Z,92.60
2023-03-13T06:01:45.249Z,92.60
2023-03-13T06:04:11.972Z,92.50
2023-03-13T06:06:38.614Z,92.30
2023-03-13T06:09:05.875Z,92.40
2023-03-13T06:11:32.635Z,92.10
2023-03-13T06:13:59.525Z,92.10
2023-03-13T06:16:26.154Z,92.00
2023-03-13T06:18:52.760Z,92.00
2023-03-13T06:21:19.312Z,92.00
2023-03-13T06:23:45.960Z,92.10
2023-03-13T06:26:12.574Z,92.00
2023-03-13T06:28:39.221Z,91.80
2023-03-13T06:31:07.537Z,91.80
2023-03-13T06:33:34.698Z,91.40
2023-03-13T06:36:01.871Z,91.40
2023-03-13T06:38:29.279Z,91.20
2023-03-13T06:40:56.145Z,91.10
2023-03-13T06:43:22.813Z,91.30
2023-03-13T06:45:49.728Z,91.20
2023-03-13T06:48:16.299Z,91.20
2023-03-13T06:50:43.336Z,91.60
2023-03-13T06:53:16.774Z,91.30
2023-03-13T06:55:43.805Z,91.20
2023-03-13T06:58:18.864Z,91.10
2023-03-13T07:00:55.625Z,90.90
2023-03-13T07:03:22.318Z,90.80
2023-03-13T07:05:48.886Z,90.80
2023-03-13T07:08:15.471Z,90.70
2023-03-13T07:10:43.276Z,90.60
2023-03-13T07:13:09.854Z,90.60
2023-03-13T07:15:36.371Z,90.40
2023-03-13T07:18:02.898Z,90.10
2023-03-13T07:20:29.631Z,90.30
2023-03-13T07:22:56.264Z,90.30
2023-03-13T07:25:22.797Z,90.20
2023-03-13T07:27:52.339Z,90.10
2023-03-13T07:30:19.739Z,89.30
2023-03-13T07:32:46.343Z,89.10
2023-03-13T07:35:12.926Z,88.80
2023-03-13T07:37:39.430Z,88.40
2023-03-13T07:40:06.490Z,87.50
2023-03-13T07:42:32.999Z,87.10
2023-03-13T07:44:59.566Z,87.00
2023-03-13T07:47:26.114Z,86.60
2023-03-13T07:49:53.800Z,86.00
2023-03-13T07:52:20.430Z,85.70
2023-03-13T07:54:46.976Z,84.30
2023-03-13T07:57:13.637Z,83.10
2023-03-13T07:59:40.189Z,80.20
2023-03-13T08:02:08.647Z,78.50
2023-03-13T08:04:35.236Z,76.00
2023-03-13T08:07:01.783Z,76.70
2023-03-13T08:09:28.318Z,76.50
2023-03-13T08:11:54.825Z,76.10
2023-03-13T08:14:21.378Z,73.90
2023-03-13T08:16:48.072Z,74.90
2023-03-13T08:19:14.600Z,76.10
2023-03-13T08:21:41.154Z,76.50
2023-03-13T08:24:09.043Z,77.30
2023-03-13T08:26:37.598Z,78.40
2023-03-13T08:29:13.506Z,78.20
2023-03-13T08:31:52.478Z,75.80
2023-03-13T08:34:19.298Z,73.20
2023-03-13T08:36:46.183Z,71.00
2023-03-13T08:39:18.096Z,72.00
2023-03-13T08:41:45.144Z,72.80
2023-03-13T08:44:14.198Z,71.30
2023-03-13T08:46:40.856Z,69.10
2023-03-13T08:49:08.194Z,66.70
2023-03-13T08:51:35.495Z,64.70
2023-03-13T08:54:03.405Z,62.30
2023-03-13T08:56:30.745Z,60.30
2023-03-13T08:58:59.740Z,58.90
2023-03-13T09:01:29.374Z,57.30
2023-03-13T09:03:56.442Z,55.70
2023-03-13T09:06:23.171Z,55.00
2023-03-13T09:08:49.803Z,53.40
2023-03-13T09:11:19.351Z,52.10
2023-03-13T09:13:48.283Z,51.20
2023-03-13T09:16:20.496Z,53.00
2023-03-13T09:18:47.420Z,52.30
2023-03-13T09:21:16.955Z,53.20
2023-03-13T09:23:43.775Z,53.90
2023-03-13T09:26:10.619Z,52.90
2023-03-13T09:28:37.263Z,52.60
2023-03-13T09:31:18.106Z,51.90
2023-03-13T09:33:46.828Z,51.70
2023-03-13T09:36:13.666Z,51.70
2023-03-13T09:38:41.508Z,52.40
2023-03-13T09:41:17.140Z,52.60
2023-03-13T09:44:08.552Z,51.10
2023-03-13T09:46:54.225Z,51.00
2023-03-13T09:49:41.148Z,53.10
2023-03-13T09:52:28.980Z,50.80
2023-03-13T09:55:10.108Z,51.50
2023-03-13T09:57:57.319Z,51.60
2023-03-13T10:00:23.974Z,51.10
2023-03-13T10:02:59.057Z,52.10
2023-03-13T10:05:27.895Z,52.40
2023-03-13T10:08:16.594Z,53.10
2023-03-13T10:11:09.808Z,53.00
2023-03-13T10:13:48.398Z,53.00
2023-03-13T10:16:22.713Z,53.80
2023-03-13T10:18:55.506Z,53.50
2023-03-13T10:21:26.122Z,52.80
2023-03-13T10:24:05.103Z,53.90
2023-03-13T10:26:35.721Z,54.80
2023-03-13T10:29:19.262Z,56.10
2023-03-13T10:32:00.821Z,56.40
2023-03-13T10:34:29.940Z,58.60
2023-03-13T10:36:59.615Z,58.70
2023-03-13T10:39:28.388Z,59.60
2023-03-13T10:42:09.934Z,58.20
2023-03-13T10:44:36.734Z,59.90
2023-03-13T10:47:05.056Z,59.50
2023-03-13T10:49:32.384Z,59.00
2023-03-13T10:52:04.471Z,58.00
2023-03-13T10:54:37.201Z,58.60
2023-03-13T10:57:26.029Z,60.00
2023-03-13T10:59:53.982Z,60.10
2023-03-13T11:02:38.356Z,60.90
2023-03-13T11:05:25.260Z,62.10
2023-03-13T11:07:53.281Z,60.10
2023-03-13T11:10:23.435Z,61.70
2023-03-13T11:12:55.212Z,60.10
2023-03-13T11:15:35.636Z,61.10
2023-03-13T11:18:04.978Z,61.30
2023-03-13T11:20:39.652Z,63.00
2023-03-13T11:23:18.451Z,61.70
2023-03-13T11:26:17.388Z,62.30
2023-03-13T11:29:09.608Z,63.10
2023-03-13T11:31:40.956Z,62.90
2023-03-13T11:34:26.442Z,63.20
2023-03-13T11:36:58.951Z,64.50
2023-03-13T11:39:40.611Z,64.90
2023-03-13T11:42:58.517Z,65.10
2023-03-13T11:45:44.880Z,66.10
2023-03-13T11:48:42.896Z,65.60
2023-03-13T11:51:20.937Z,66.20
2023-03-13T11:54:00.467Z,65.10
2023-03-13T11:56:37.849Z,65.10
2023-03-13T11:59:25.919Z,66.80
2023-03-13T12:02:31.153Z,66.20
2023-03-13T12:05:02.060Z,67.20
2023-03-13T12:07:47.425Z,65.70
2023-03-13T12:10:22.214Z,66.10
2023-03-13T12:13:03.797Z,66.60
2023-03-13T12:15:47.036Z,66.50
2023-03-13T12:18:38.342Z,66.20
2023-03-13T12:21:14.503Z,67.20
2023-03-13T12:23:53.348Z,66.00
2023-03-13T12:26:25.987Z,66.20
2023-03-13T12:29:15.957Z,66.90
2023-03-13T12:31:57.183Z,66.70
2023-03-13T12:34:35.839Z,66.40
2023-03-13T12:37:19.547Z,65.10
2023-03-13T12:39:53.480Z,64.90
2023-03-13T12:42:31.706Z,63.70
2023-03-13T12:44:59.317Z,59.90
2023-03-13T12:47:56.677Z,63.00
2023-03-13T12:50:23.176Z,61.50
2023-03-13T12:53:17.141Z,59.90
2023-03-13T12:55:55.951Z,61.80
2023-03-13T12:58:40.438Z,62.90
2023-03-13T13:01:11.185Z,61.80
2023-03-13T13:03:51.916Z,60.80
2023-03-13T13:06:19.355Z,61.80
2023-03-13T13:09:06.415Z,61.90
2023-03-13T13:11:38.568Z,60.00
2023-03-13T13:14:17.301Z,62.80
2023-03-13T13:16:51.685Z,66.20
2023-03-13T13:19:24.090Z,67.20
2023-03-13T13:22:28.519Z,61.30
2023-03-13T13:25:00.145Z,61.90
2023-03-13T13:27:47.697Z,61.60
2023-03-13T13:30:17.061Z,60.20
2023-03-13T13:32:49.200Z,59.90
2023-03-13T13:35:35.311Z,59.50
2023-03-13T13:38:20.252Z,59.70
2023-03-13T13:41:05.449Z,59.30
2023-03-13T13:43:49.578Z,60.60
2023-03-13T13:46:33.925Z,62.40
2023-03-13T13:49:06.690Z,63.70
2023-03-13T13:52:02.675Z,63.40
2023-03-13T13:54:42.703Z,62.00
2023-03-13T13:57:19.511Z,62.40
2023-03-13T14:00:05.126Z,61.60
2023-03-13T14:02:35.158Z,62.20
2023-03-13T14:05:06.684Z,61.00
2023-03-13T14:07:39.405Z,60.00
2023-03-13T14:10:35.359Z,62.20
2023-03-13T14:13:05.402Z,65.00
2023-03-13T14:15:34.372Z,63.30
2023-03-13T14:18:24.898Z,62.70
2023-03-13T14:21:03.109Z,62.40
2023-03-13T14:23:32.498Z,64.20
2023-03-13T14:25:59.170Z,64.30
2023-03-13T14:28:29.353Z,63.90
2023-03-13T14:30:58.190Z,64.40
2023-03-13T14:33:29.175Z,64.70
2023-03-13T14:35:57.484Z,66.30
2023-03-13T14:38:26.279Z,68.10
2023-03-13T14:40:55.436Z,68.70
2023-03-13T14:43:35.666Z,66.00
2023-03-13T14:46:31.333Z,65.60
2023-03-13T14:49:24.205Z,67.20
2023-03-13T14:52:05.822Z,66.60
2023-03-13T14:54:37.140Z,66.60
2023-03-13T14:57:15.976Z,66.70
2023-03-13T14:59:43.349Z,66.60
2023-03-13T15:02:19.282Z,67.80
2023-03-13T15:05:18.010Z,68.30
2023-03-13T15:07:54.405Z,68.20
2023-03-13T15:10:22.198Z,68.30
2023-03-13T15:12:49.212Z,69.20
2023-03-13T15:15:16.287Z,69.50
2023-03-13T15:17:43.300Z,69.70
2023-03-13T15:20:13.536Z,69.20
2023-03-13T15:22:43.130Z,69.40
2023-03-13T15:25:21.372Z,69.20
2023-03-13T15:27:49.197Z,69.10
2023-03-13T15:30:20.840Z,69.00
2023-03-13T15:32:47.882Z,69.10
2023-03-13T15:35:33.679Z,68.90
2023-03-13T15:38:01.568Z,68.60
2023-03-13T15:40:30.739Z,68.10
2023-03-13T15:42:57.370Z,68.10
2023-03-13T15:45:23.990Z,68.40
2023-03-13T15:47:50.579Z,68.40
2023-03-13T15:50:19.167Z,68.60
2023-03-13T15:52:46.015Z,69.00
2023-03-13T15:55:12.857Z,68.80
2023-03-13T15:57:45.310Z,68.60
2023-03-13T16:00:20.483Z,68.40
2023-03-13T16:02:47.123Z,68.80
2023-03-13T16:05:13.818Z,68.80
2023-03-13T16:07:40.331Z,67.70
2023-03-13T16:10:25.090Z,67.00
2023-03-13T16:12:52.728Z,65.90
2023-03-13T16:15:19.455Z,65.70
2023-03-13T16:17:46.106Z,66.10
2023-03-13T16:20:18.584Z,65.50
2023-03-13T16:22:45.303Z,63.70
2023-03-13T16:25:13.428Z,64.00
2023-03-13T16:27:41.782Z,65.00
2023-03-13T16:30:18.151Z,64.50
2023-03-13T16:32:45.509Z,64.20
2023-03-13T16:35:12.638Z,64.90
2023-03-13T16:37:39.606Z,65.20
2023-03-13T16:40:30.541Z,65.60
2023-03-13T16:42:57.172Z,65.90
2023-03-13T16:45:23.901Z,64.60
2023-03-13T16:47:50.512Z,65.00
2023-03-13T16:50:32.524Z,64.60
2023-03-13T16:52:59.649Z,64.90
2023-03-13T16:55:28.567Z,65.50
2023-03-13T16:57:57.178Z,65.10
2023-03-13T17:00:25.847Z,65.30
2023-03-13T17:02:53.014Z,65.90
2023-03-13T17:05:19.892Z,66.50
2023-03-13T17:07:48.593Z,65.60
2023-03-13T17:10:18.355Z,65.60
2023-03-13T17:12:45.241Z,65.60
2023-03-13T17:15:11.935Z,65.70
2023-03-13T17:17:39.212Z,66.00
2023-03-13T17:20:09.523Z,66.10
2023-03-13T17:22:36.257Z,66.00
2023-03-13T17:25:02.795Z,66.70
2023-03-13T17:27:29.599Z,66.80
2023-03-13T17:29:56.484Z,67.40
2023-03-13T17:32:25.067Z,66.90
2023-03-13T17:34:52.269Z,67.40
2023-03-13T17:37:22.130Z,67.10
2023-03-13T17:39:51.207Z,67.40
2023-03-13T17:42:18.564Z,67.20
2023-03-13T17:44:45.138Z,68.30
2023-03-13T17:47:15.149Z,68.10
2023-03-13T17:49:42.844Z,69.00
2023-03-13T17:52:17.182Z,68.40
2023-03-13T17:54:45.105Z,68.20
2023-03-13T17:57:15.514Z,68.30
2023-03-13T17:59:42.802Z,69.20
2023-03-13T18:02:14.338Z,68.80
2023-03-13T18:04:42.061Z,68.70
2023-03-13T18:07:21.049Z,68.80
2023-03-13T18:09:47.725Z,68.20
2023-03-13T18:12:14.877Z,68.80
2023-03-13T18:14:42.103Z,68.30
2023-03-13T18:17:23.452Z,68.30
2023-03-13T18:19:51.415Z,68.30
2023-03-13T18:22:23.287Z,68.70
2023-03-13T18:24:49.894Z,68.60
2023-03-13T18:27:19.387Z,69.70
2023-03-13T18:29:48.791Z,69.50
2023-03-13T18:32:17.648Z,68.10
2023-03-13T18:34:44.887Z,68.80
2023-03-13T18:37:30.777Z,68.20
2023-03-13T18:39:57.886Z,66.50
2023-03-13T18:42:24.839Z,66.90
2023-03-13T18:44:51.532Z,67.20
2023-03-13T18:47:20.963Z,67.90
2023-03-13T18:49:49.768Z,67.70
2023-03-13T18:52:17.082Z,67.30
2023-03-13T18:54:44.686Z,68.60
2023-03-13T18:57:16.537Z,67.70
2023-03-13T18:59:44.213Z,68.10
2023-03-13T19:02:14.746Z,68.70
2023-03-13T19:04:41.969Z,68.10
2023-03-13T19:07:26.012Z,68.20
2023-03-13T19:09:53.976Z,68.00
2023-03-13T19:12:20.547Z,67.50
2023-03-13T19:14:47.242Z,66.80
2023-03-13T19:17:23.518Z,69.00
2023-03-13T19:19:50.083Z,68.80
2023-03-13T19:22:16.599Z,69.40
2023-03-13T19:24:43.238Z,68.60
2023-03-13T19:27:13.887Z,67.50
2023-03-13T19:29:40.553Z,68.00
2023-03-13T19:32:08.201Z,68.00
2023-03-13T19:34:34.840Z,66.30
2023-03-13T19:37:01.457Z,66.40
2023-03-13T19:39:28.117Z,67.00
2023-03-13T19:41:54.664Z,67.60
2023-03-13T19:44:22.226Z,67.40
2023-03-13T19:46:49.044Z,68.30
2023-03-13T19:49:18.035Z,68.30
2023-03-13T19:51:44.996Z,68.80
2023-03-13T19:54:12.390Z,68.20
2023-03-13T19:56:41.170Z,71.50
2023-03-13T19:59:14.546Z,67.80
2023-03-13T20:01:41.526Z,68.30
2023-03-13T20:04:08.251Z,66.10
2023-03-13T20:06:35.675Z,63.80
2023-03-13T20:09:06.158Z,62.90
2023-03-13T20:11:33.433Z,62.00
2023-03-13T20:14:00.011Z,61.50
2023-03-13T20:16:27.873Z,62.00
2023-03-13T20:18:55.375Z,62.40
2023-03-13T20:21:23.654Z,63.60
2023-03-13T20:23:51.255Z,64.90
2023-03-13T20:26:19.515Z,71.50
2023-03-13T20:28:48.320Z,76.30
2023-03-13T20:31:16.633Z,81.00
2023-03-13T20:33:43.366Z,83.20
2023-03-13T20:36:12.522Z,84.90
2023-03-13T20:38:40.175Z,85.50
2023-03-13T20:41:07.631Z,86.20
2023-03-13T20:43:35.470Z,86.90
2023-03-13T20:46:02.707Z,87.30
2023-03-13T20:48:29.688Z,87.80
2023-03-13T20:50:58.323Z,87.60
2023-03-13T20:53:25.764Z,87.70
2023-03-13T20:55:54.349Z,87.60
2023-03-13T20:58:21.244Z,87.30
2023-03-13T21:00:48.794Z,86.90
2023-03-13T21:03:17.249Z,87.20
2023-03-13T21:05:44.501Z,87.00
2023-03-13T21:08:11.358Z,86.90
2023-03-13T21:10:39.011Z,87.30
2023-03-13T21:13:06.022Z,87.20
2023-03-13T21:15:32.773Z,87.40
2023-03-13T21:17:59.924Z,87.30
2023-03-13T21:20:27.811Z,87.60
2023-03-13T21:22:54.624Z,87.70
2023-03-13T21:25:21.222Z,87.60
2023-03-13T21:27:47.804Z,87.60
2023-03-13T21:30:18.338Z,87.60
2023-03-13T21:32:45.573Z,87.70
2023-03-13T21:35:13.488Z,87.80
2023-03-13T21:37:40.841Z,87.60
2023-03-13T21:40:08.803Z,88.20
2023-03-13T21:42:36.082Z,88.20
2023-03-13T21:45:04.385Z,88.20
2023-03-13T21:47:31.561Z,88.20
2023-03-13T21:50:00.563Z,88.40
2023-03-13T21:52:27.889Z,88.90
2023-03-13T21:54:54.573Z,88.80
2023-03-13T21:57:21.169Z,90.00
2023-03-13T21:59:47.716Z,90.90
2023-03-13T22:02:14.392Z,91.60
2023-03-13T22:04:41.098Z,92.10
2023-03-13T22:07:07.798Z,92.80
2023-03-13T22:09:34.430Z,93.70
2023-03-13T22:12:00.996Z,94.30
2023-03-13T22:14:27.967Z,94.70
2023-03-13T22:16:54.736Z,95.40
2023-03-13T22:19:21.291Z,96.20
2023-03-13T22:21:47.976Z,97.00
2023-03-13T22:24:14.598Z,97.90
2023-03-13T22:26:41.220Z,98.60
2023-03-13T22:29:07.777Z,99.60
2023-03-13T22:31:34.400Z,99.80
2023-03-13T22:34:00.950Z,99.90
2023-03-13T22:36:27.570Z,99.90
2023-03-13T22:38:54.372Z,99.90
2023-03-13T22:41:20.979Z,99.90
2023-03-13T22:43:47.543Z,99.90
2023-03-13T22:46:14.446Z,99.90
2023-03-13T22:48:41.092Z,99.90
2023-03-13T22:51:13.421Z,99.90
2023-03-13T22:53:41.293Z,99.90
2023-03-13T22:56:12.371Z,99.90
2023-03-13T22:58:39.434Z,99.90
2023-03-13T23:01:14.346Z,99.90
2023-03-13T23:03:41.243Z,99.90
2023-03-13T23:06:09.899Z,99.90
2023-03-13T23:08:36.647Z,99.90
2023-03-13T23:11:04.861Z,99.90
2023-03-13T23:13:31.918Z,99.90
2023-03-13T23:15:58.844Z,99.90
2023-03-13T23:18:27.718Z,99.90
2023-03-13T23:20:54.685Z,99.90
2023-03-13T23:23:21.334Z,99.90
2023-03-13T23:25:48.244Z,99.90
2023-03-13T23:28:14.906Z,99.90
2023-03-13T23:30:42.224Z,99.90
2023-03-13T23:33:08.790Z,99.90
2023-03-13T23:35:38.456Z,99.90
2023-03-13T23:38:05.049Z,99.90
2023-03-13T23:40:32.500Z,99.90
2023-03-13T23:42:59.010Z,99.90
2023-03-13T23:45:25.608Z,99.90
2023-03-13T23:47:53.349Z,99.90
2023-03-13T23:50:20.275Z,99.90
2023-03-13T23:52:46.810Z,99.90
2023-03-13T23:55:13.502Z,99.90
2023-03-13T23:57:40.196Z,99.90
